Other Surface Observations
Issued by NWS Great Falls, MT

Current Version |  Previous Version |  Text Only |  Print | Product List |  Glossary On
Versions: 1 2 3 4 5 6 7 8 9 10 11 12 13 14 15 16 17 18 19 20 21 22 23 24 25 26 27 28 29 30 31 32 33 34 35 36 37 38 39 40 41 42 43 44 45 46 47 48 49 50
354
SXUS55 KTFX 150830
OSOTFX

Area AWOS Observations
National Weather Service Great Falls MT
230 AM MDT SAT JUN 15 2024

METAR KCII 150825Z AUTO 00000KT 10SM 15/M05 A2985 RMK A01
METAR K6S8 150825Z AUTO VRB03G10KT 10SM 18/11 A2983 RMK A01 Laurel
METAR KS85 150825Z AUTO 00000KT 10SM CLR 12/12 A2969 RMK A01 Culbertson
METAR K4U6 150825Z AUTO 22006KT 10SM 16/13 A2975 RMK A01 Circle